Wednesday, November 14, 2018, 2:43 AM EST
Back to Local

KCAR, Caribou Municipal Airport

Location: Caribou, ME, United States Lat: 46.867
Local Time: 2:43 AM EST ( 7:43 GMT) Lon: -68.017
Time Zone: US/Eastern Elev: 626 ft

Show me the last for .
Show Decoded

2018-11-14 01:54 METAR KCAR 140654Z AUTO 30015G26KT 9SM FEW023 SCT029 M03/M08 A2957 RMK AO2 PK
                 WND 27028/0601 UPE54 SLP026 P0000 T10331078 =
2018-11-14 00:54 METAR KCAR 140554Z AUTO 26015G28KT 4SM UP FEW019 BKN030 OVC055 00/M03 A2951 RMK
                 AO2 PK WND 24028/0548 UPB48SNB29E48 SLP003 P0000 60009 T00001033 10006 21006
                 56014 =
2018-11-14 00:42 METAR KCAR 140542Z AUTO 26014G23KT 5SM -SN FEW019 BKN044 OVC055 00/M03 A2951 RMK
                 AO2 SNB29 P0000 T00001028 =
2018-11-13 23:54 METAR KCAR 140454Z AUTO VRB06KT 10SM OVC016 00/M02 A2952 RMK AO2 SLP006
                 T00001022 400061061 =
2018-11-13 23:24 METAR KCAR 140424Z AUTO 25006KT 10SM SCT016 OVC020 00/M02 A2953 =
2018-11-13 23:12 METAR KCAR 140412Z AUTO 27006KT 10SM OVC014 00/M02 A2952 RMK AO2 T00001022 =
2018-11-13 22:54 METAR KCAR 140354Z AUTO 26004KT 10SM OVC016 M01/M02 A2953 RMK AO2 SLP009
                 T10061022 =
2018-11-13 22:44 METAR KCAR 140344Z AUTO 26006KT 10SM BKN018 OVC036 M01/M02 A2953 RMK AO2
                 T10061022 =
2018-11-13 22:15 METAR KCAR 140315Z AUTO 26005KT 10SM SCT004 SCT036 OVC065 M01/M02 A2955 RMK AO2
                 T10061022 =
2018-11-13 21:54 METAR KCAR 140254Z AUTO 26004KT 10SM BKN004 BKN009 OVC055 M01/M02 A2955 RMK AO2
                 SNE20 SLP019 P0001 60009 T10061017 56033 =
2018-11-13 21:43 METAR KCAR 140243Z AUTO 26004KT 10SM BKN003 BKN009 OVC020 00/M02 A2956 RMK AO2
                 SNE20 CIG 002V006 P0001 T00001017 =
2018-11-13 21:35 METAR KCAR 140235Z AUTO 26006KT 10SM SCT003 BKN011 OVC049 M01/M02 A2956 RMK AO2
                 SNE20 P0001 T10061017 =
2018-11-13 21:26 METAR KCAR 140226Z AUTO 25004KT 9SM FEW003 BKN020 OVC028 M01/M02 A2956 =
2018-11-13 21:15 METAR KCAR 140215Z AUTO 28003KT 3SM -SN BR SCT022 OVC028 00/M02 A2957 RMK AO2
                 P0001 T00001017 =
2018-11-13 21:12 METAR KCAR 140212Z AUTO 00000KT 1 3/4SM -SN BR FEW022 OVC028 00/M02 A2957 RMK
                 AO2 P0001 T00001017 =
2018-11-13 21:07 METAR KCAR 140207Z AUTO 00000KT 3/4SM -SN BR OVC021 00/M02 A2957 RMK AO2 P0001
                 T00001017 =
2018-11-13 20:54 METAR KCAR 140154Z AUTO 32003KT 1 1/4SM -SN BR FEW018 OVC024 00/M02 A2958 RMK
                 AO2 SLP027 P0002 T00001017 =
2018-11-13 20:29 METAR KCAR 140129Z AUTO 35004KT 1 3/4SM -SN BR FEW012 BKN024 OVC031 00/M01 A2960
                 RMK AO2 P0001 T00001011 =
2018-11-13 20:15 METAR KCAR 140115Z AUTO 36004KT 1 1/4SM -SN BR SCT012 OVC022 00/M01 A2961 =
2018-11-13 19:54 METAR KCAR 140054Z AUTO 02005KT 1 3/4SM -SN BR FEW012 OVC019 00/M01 A2961 RMK
                 AO2 PRESFR SLP038 P0006 T00001011 =
2018-11-13 19:44 METAR KCAR 140044Z AUTO 02005KT 1SM -SN BR VV015 00/M01 A2962 =
2018-11-13 18:54 METAR KCAR 132354Z AUTO 34004KT 3/4SM -SN BR VV013 00/M01 A2965 RMK AO2 SLP053
                 P0005 60041 T00001011 10006 20000 56043 =
2018-11-13 18:27 METAR KCAR 132327Z AUTO 01005KT 3/4SM -SN BR VV013 00/M01 A2967 RMK AO2 P0003
                 T00001011 =
2018-11-13 18:09 METAR KCAR 132309Z AUTO 01004KT 1SM -SN BR VV014 00/M01 A2968 RMK AO2 P0001
                 T00001011 =
2018-11-13 17:54 METAR KCAR 132254Z AUTO 01005KT 3/4SM -SN BR VV011 00/M01 A2970 RMK AO2 SLP067
                 P0006 T00001011 =
2018-11-13 17:44 METAR KCAR 132244Z AUTO 01006KT 3/4SM -SN BR VV011 00/M01 A2970 RMK AO2 P0005
                 T00001011 =
2018-11-13 17:36 METAR KCAR 132236Z AUTO 01005KT 1SM -SN BR VV011 00/M01 A2970 RMK AO2 P0004
                 T00001011 =
2018-11-13 17:20 METAR KCAR 132220Z AUTO 01004KT 3/4SM -SN BR FEW005 OVC010 00/M01 A2972 RMK AO2
                 P0003 T00001011 =
2018-11-13 16:54 METAR KCAR 132154Z AUTO 05005KT 1SM -SN BR SCT005 OVC012 00/M01 A2973 RMK AO2
                 SLP078 P0007 T00001011 =
2018-11-13 16:49 METAR KCAR 132149Z AUTO 05005KT 1SM -SN BR SCT005 BKN010 OVC014 00/M01 A2973 RMK
                 AO2 P0007 =
2018-11-13 16:43 METAR KCAR 132143Z AUTO 05006KT 1SM -SN BR BKN005 BKN008 OVC015 00/M01 A2973 RMK
                 AO2 P0006 T00001011 =
2018-11-13 16:15 METAR KCAR 132115Z AUTO 06005KT 1SM -SN BR BKN004 OVC016 00/M02 A2976 RMK AO2
                 P0003 T00001017 =
2018-11-13 15:54 METAR KCAR 132054Z AUTO 07007KT 1/4SM SN FG VV005 00/M02 A2978 RMK AO2 PRESFR
                 SLP096 P0009 60023 T00001017 56071 =
2018-11-13 15:45 METAR KCAR 132045Z AUTO 07007KT 1/4SM SN FG VV005 00/M01 A2979 RMK AO2 PRESFR
                 P0007 T00001011 =
2018-11-13 15:28 METAR KCAR 132028Z AUTO 07006KT 1/4SM +SN FG VV004 00/M01 A2982 RMK AO2 P0005
                 T00001011 =
2018-11-13 15:13 METAR KCAR 132013Z AUTO 09005KT 1/4SM SN FG VV005 00/M01 A2983 RMK AO2 P0003
                 T00001011 =
2018-11-13 14:54 METAR KCAR 131954Z AUTO 09006KT 1/4SM SN FG VV004 00/M01 A2985 RMK AO2 SLP118
                 P0007 T00001011 =
2018-11-13 14:27 METAR KCAR 131927Z AUTO 08004KT 1/4SM SN FG VV004 01/M01 A2988 =
2018-11-13 13:54 METAR KCAR 131854Z AUTO 13006KT 1/4SM SN FG OVC005 00/M01 A2991 RMK AO2 PRESFR
                 SLP142 P0007 T00001011 =
2018-11-13 13:18 METAR KCAR 131818Z AUTO 14007KT 1/4SM SN FG OVC005 00/M01 A2996 RMK AO2 PRESFR
                 P0003 T00001011 =
2018-11-13 12:54 METAR KCAR 131754Z AUTO 14006KT 1/4SM SN FG VV006 00/M02 A3000 RMK AO2 SLP170
                 P0006 60026 T00001017 10000 21039 56034 =
2018-11-13 12:26 METAR KCAR 131726Z AUTO 14008KT 1/2SM SN FZFG VV006 M01/M02 A3001 RMK AO2 P0003
                 T10061022 =
2018-11-13 11:54 METAR KCAR 131654Z AUTO 15008KT 1/4SM SN FZFG VV005 M01/M02 A3004 RMK AO2 SLP185
                 P0007 T10111022 =
2018-11-13 11:05 METAR KCAR 131605Z AUTO 14004KT 1/4SM SN FZFG VV006 M02/M03 A3009 RMK AO2 P0001
                 T10171028 =
2018-11-13 10:54 METAR KCAR 131554Z AUTO 14005KT 1/4SM SN FZFG FEW005 OVC010 M02/M03 A3010 RMK
                 AO2 SLP205 P0006 T10171033 =
2018-11-13 10:37 METAR KCAR 131537Z AUTO 13005KT 1/2SM SN FZFG FEW006 OVC010 M02/M03 A3011 RMK
                 AO2 P0004 T10171033 =
2018-11-13 09:54 METAR KCAR 131454Z AUTO 13005KT 1/2SM SN FZFG VV013 M02/M04 A3015 RMK AO2 SLP224
                 P0004 60007 T10221039 58024 =
2018-11-13 08:54 METAR KCAR 131354Z AUTO 11004KT 1/4SM SN FZFG VV012 M03/M04 A3019 RMK AO2 SLP235
                 P0003 T10281044 =
2018-11-13 08:17 METAR KCAR 131317Z AUTO 14006KT 1/4SM SN FZFG VV012 M03/M05 A3022 RMK AO2 P0001
                 T10331050 =
2018-11-13 07:54 METAR KCAR 131254Z AUTO 17004KT 3/4SM -SN FEW020 OVC029 M03/M06 A3024 RMK AO2
                 SNB18 SLP252 P0000 T10281061 =
2018-11-13 07:48 METAR KCAR 131248Z AUTO 18004KT 1 3/4SM -SN FEW020 BKN039 OVC065 M03/M06 A3025
                 RMK AO2 SNB18 P0000 =
2018-11-13 06:54 METAR KCAR 131154Z AUTO 15004KT 10SM BKN060 OVC075 M04/M07 A3023 RMK AO2 SLP249
                 T10391072 11039 21056 56015 =
2018-11-13 05:54 METAR KCAR 131054Z AUTO 14003KT 10SM OVC046 M04/M07 A3024 RMK AO2 SLP253
                 T10391072 =
2018-11-13 04:54 METAR KCAR 130954Z AUTO 10003KT 10SM BKN060 OVC080 M04/M08 A3025 RMK AO2 SLP258
                 T10441078 =
2018-11-13 03:54 METAR KCAR 130854Z AUTO 14003KT 10SM BKN080 OVC095 M04/M08 A3027 RMK AO2 SLP264
                 T10441078 58016 =
2018-11-13 02:54 METAR KCAR 130754Z AUTO 16003KT 10SM SCT070 BKN110 M05/M08 A3030 RMK AO2 SLP272
                 T10501083 =

Support USWX by starting your Amazon purchase here.